Flight Track Log - Related Links

Times and Time Zones

All times are in EDT time to prevent confusion due to time zone crossing. See the SWA1725 flight status page for this flight to view local times or setup timezone preferences in your user account.

Time Position Orientation Groundspeed Altitude Reporting Facility
EDT Latitude Longitude Course Direction KTS MPH feet Rate Location/Type
Mon 05:08:48 PM 38.7333 -121.6000 90° East 155 178 1,900  Level Northern Cal TRACON
Mon 05:09:48 PM 38.7333 -121.5167 90° East 236 272 3,800 2,550 Climbing Northern Cal TRACON
Mon 05:10:48 PM 38.7333 -121.4333 90° East 247 284 7,000 2,700 Climbing Northern Cal TRACON
Mon 05:11:48 PM 38.7333 -121.3333 90° East 277 319 9,200 2,300 Climbing Northern Cal TRACON
Mon 05:12:48 PM 38.7333 -121.2500 90° East 286 329 11,600 2,625 Climbing Northern Cal TRACON
Mon 05:14:28 PM 38.8067 -121.1264 53° Northeast 271 312 16,200 2,012 Climbing Oakland Center
Mon 05:15:29 PM 38.7992 -120.9908 94° East 372 428 17,000 1,475 Climbing Oakland Center
Mon 05:16:30 PM 38.7886 -120.8375 95° East 415 478 19,200 2,016 Climbing Oakland Center
Mon 05:17:31 PM 38.7792 -120.6767 94° East 445 512 21,100 1,967 Climbing Oakland Center
Mon 05:18:32 PM 38.7681 -120.5119 95° East 458 527 23,200 1,918 Climbing Oakland Center
Mon 05:19:33 PM 38.7561 -120.3436 95° East 468 539 25,000 1,623 Climbing Oakland Center
Mon 05:20:34 PM 38.7450 -120.1706 95° East 482 555 26,500 1,672 Climbing Oakland Center
Mon 05:21:35 PM 38.7314 -119.9939 96° East 493 567 28,400 2,705 Climbing Oakland Center
Mon 05:22:36 PM 38.7158 -119.8283 97° East 474 545 32,000 2,656 Climbing Oakland Center
Mon 05:23:37 PM 38.7064 -119.6814 95° East 428 493 33,800 1,131 Climbing Oakland Center
Mon 05:24:38 PM 38.6953 -119.5289 95° East 431 496 34,300 541 Climbing Oakland Center
Mon 05:25:39 PM 38.6769 -119.3339 97° East 461 531 34,900 787 Climbing Oakland Center
Mon 05:26:40 PM 38.6636 -119.1711 96° East 463 533 35,900 885 Climbing Oakland Center
Mon 05:27:41 PM 38.6508 -119.0081 96° East 465 535 36,700 541 Climbing Oakland Center
Mon 05:28:42 PM 38.6375 -118.8428 96° East 470 541 37,000 146 Climbing Oakland Center
Mon 05:29:44 PM 38.6225 -118.6736 96° East 479 551 37,000  Level Oakland Center
Mon 05:30:45 PM 38.6078 -118.5022 96° East 486 559 37,000  Level Oakland Center
Mon 05:31:46 PM 38.5931 -118.3308 96° East 488 562 37,000  Level Oakland Center
Mon 05:32:47 PM 38.5772 -118.1606 97° East 487 560 37,000  Level Oakland Center
Mon 05:33:48 PM 38.5728 -117.9886 92° East 485 558 37,000  Level Oakland Center
Mon 05:34:49 PM 38.5992 -117.8233 78° East 472 543 37,000  Level Oakland Center
Mon 05:35:50 PM 38.6242 -117.6569 79° East 473 544 37,000  Level Oakland Center
Mon 05:36:37 PM 38.6442 -117.5236 79° East 473 544 37,000  Level Salt Lake Center
Mon 05:37:39 PM 38.6694 -117.3561 79° East 476 548 37,000  Level Salt Lake Center
Mon 05:38:40 PM 38.6939 -117.1886 79° East 476 548 37,000  Level Salt Lake Center
Mon 05:39:42 PM 38.7247 -116.9883 79° East 475 547 37,000  Level Salt Lake Center
Mon 05:40:44 PM 38.7494 -116.8231 79° East 472 543 37,000  Level Salt Lake Center
Mon 05:41:45 PM 38.7736 -116.6556 79° East 473 544 37,000  Level Salt Lake Center
Mon 05:42:47 PM 38.7978 -116.4917 79° East 471 542 37,000  Level Salt Lake Center
Mon 05:43:48 PM 38.8214 -116.3267 80° East 469 540 37,000  Level Salt Lake Center
Mon 05:44:50 PM 38.8447 -116.1614 80° East 470 541 37,000  Level Salt Lake Center
Mon 05:45:51 PM 38.8678 -115.9964 80° East 470 541 37,000  Level Salt Lake Center
Mon 05:46:53 PM 38.8906 -115.8325 80° East 468 539 37,000  Level Salt Lake Center
Mon 05:47:55 PM 38.9125 -115.6669 80° East 469 540 37,000  Level Salt Lake Center
Mon 05:48:56 PM 38.9403 -115.4669 80° East 473 544 37,000  Level Salt Lake Center
Mon 05:49:58 PM 38.9689 -115.3219 76° East 474 545 37,000  Level Salt Lake Center
Mon 05:50:59 PM 39.0050 -115.1589 74° East 475 547 37,000  Level Salt Lake Center
Mon 05:52:01 PM 39.0406 -114.9936 74° East 477 549 37,000  Level Salt Lake Center
Mon 05:53:03 PM 39.0822 -114.7964 75° East 478 550 37,000  Level Salt Lake Center
Mon 05:54:04 PM 39.1183 -114.6283 74° East 485 558 37,000  Level Salt Lake Center
Mon 05:55:06 PM 39.1533 -114.4656 74° East 477 549 37,000  Level Salt Lake Center
Mon 05:56:07 PM 39.1872 -114.3006 75° East 476 548 37,000  Level Salt Lake Center
Mon 05:57:09 PM 39.2219 -114.1378 75° East 472 543 37,000  Level Salt Lake Center
Mon 05:58:11 PM 39.2553 -113.9744 75° East 472 543 37,000  Level Salt Lake Center
Mon 05:59:12 PM 39.2875 -113.8131 75° East 467 537 37,000  Level Salt Lake Center
Mon 06:00:14 PM 39.3200 -113.6489 76° East 470 541 37,000  Level Salt Lake Center
Mon 06:01:15 PM 39.3594 -113.4533 75° East 469 540 37,000  Level Salt Lake Center
Mon 06:02:17 PM 39.3922 -113.2883 76° East 473 544 37,000  Level Salt Lake Center
Mon 06:03:18 PM 39.4247 -113.1239 76° East 473 544 37,000  Level Salt Lake Center
Mon 06:04:20 PM 39.4569 -112.9589 76° East 474 545 37,000  Level Salt Lake Center
Mon 06:05:21 PM 39.4897 -112.7914 76° East 479 551 37,000  Level Salt Lake Center
Mon 06:06:23 PM 39.5258 -112.6056 76° East 478 550 37,000  Level Salt Lake Center
Mon 06:07:25 PM 39.5581 -112.4386 76° East 480 552 37,000  Level Salt Lake Center
Mon 06:08:26 PM 39.5883 -112.2725 77° East 477 549 37,000  Level Salt Lake Center
Mon 06:09:28 PM 39.6203 -112.1061 76° East 479 551 37,000  Level Salt Lake Center
Mon 06:10:29 PM 39.6508 -111.9394 77° East 478 550 37,000  Level Salt Lake Center
Mon 06:11:31 PM 39.6817 -111.7761 76° East 473 544 37,000  Level Salt Lake Center
Mon 06:12:32 PM 39.7111 -111.6092 77° East 474 545 37,000  Level Salt Lake Center
Mon 06:13:34 PM 39.7483 -111.4106 76° East 473 544 37,000  Level Salt Lake Center
Mon 06:14:35 PM 39.7758 -111.2569 77° East 474 545 37,000  Level Salt Lake Center
Mon 06:15:37 PM 39.8083 -111.0683 77° East 477 549 37,000  Level Salt Lake Center
Mon 06:16:38 PM 39.8364 -110.9072 77° East 477 549 37,000  Level Salt Lake Center
Mon 06:17:40 PM 39.8650 -110.7464 77° East 477 549 37,000  Level Salt Lake Center
Mon 06:18:41 PM 39.8967 -110.5592 78° East 476 548 37,000  Level Salt Lake Center
Mon 06:19:43 PM 39.9242 -110.3983 77° East 476 548 37,000  Level Salt Lake Center
Mon 06:20:44 PM 39.9561 -110.2094 78° East 477 549 37,000  Level Salt Lake Center
Mon 06:21:46 PM 39.9825 -110.0497 78° East 473 544 37,000  Level Salt Lake Center
Mon 06:22:47 PM 40.0103 -109.8867 77° East 479 551 37,000  Level Salt Lake Center
Mon 06:23:49 PM 40.0406 -109.6975 78° East 477 549 37,000  Level Salt Lake Center
Mon 06:24:18 PM 40.0539 -109.6133 78° East 481 554 37,000  Level Denver Center
Mon 06:25:20 PM 40.0806 -109.4483 78° East 483 556 37,000  Level Denver Center
Mon 06:26:21 PM 40.1108 -109.2550 78° East 485 558 37,000  Level Denver Center
Mon 06:26:53 PM 40.1250 -109.1742 77° East 487 560 37,000  Level Salt Lake Center
Mon 06:27:23 PM 40.1339 -109.1164 79° East 487 560 37,000  Level Denver Center
Mon 06:28:25 PM 40.1692 -108.8897 78° East 494 568 37,000  Level Denver Center
Mon 06:28:56 PM 40.1825 -108.8078 78° East 494 568 37,000  Level Salt Lake Center
Mon 06:29:58 PM 40.2089 -108.6350 79° East 502 578 37,000  Level Salt Lake Center
Mon 06:30:28 PM 40.2222 -108.5453 79° East 505 581 37,000  Level Denver Center
Mon 06:31:30 PM 40.2525 -108.3417 79° East 508 585 37,000  Level Denver Center
Mon 06:32:32 PM 40.2789 -108.1667 79° East 510 587 37,000  Level Denver Center
Mon 06:33:33 PM 40.3089 -107.9633 79° East 509 586 37,000  Level Denver Center
Mon 06:34:35 PM 40.3356 -107.7881 79° East 510 587 37,000  Level Denver Center
Mon 06:35:37 PM 40.3589 -107.6147 80° East 507 583 37,000  Level Denver Center
Mon 06:36:39 PM 40.3864 -107.4131 80° East 503 579 37,000  Level Denver Center
Mon 06:37:53 PM 40.4219 -107.1822 78° East 506 582 37,000  Level Denver Center
Mon 06:38:55 PM 40.4464 -107.0064 80° East 510 587 37,000  Level Denver Center
Mon 06:39:56 PM 40.4722 -106.8169 80° East 515 593 37,000  Level Denver Center
Mon 06:40:58 PM 40.4992 -106.6289 79° East 520 598 37,000  Level Denver Center
Mon 06:42:00 PM 40.5233 -106.4394 80° East 522 601 37,000  Level Denver Center
Mon 06:43:02 PM 40.5519 -106.2297 80° East 522 601 37,000  Level Denver Center
Mon 06:44:03 PM 40.5728 -106.0583 81° East 524 603 37,000  Level Denver Center
Mon 06:45:05 PM 40.6014 -105.8369 80° East 522 601 37,000  Level Denver Center
Mon 06:46:07 PM 40.6247 -105.6458 81° East 522 601 37,000  Level Denver Center
Mon 06:47:08 PM 40.6489 -105.4564 80° East 521 600 37,000  Level Denver Center
Mon 06:48:10 PM 40.6733 -105.2636 80° East 525 604 37,000  Level Denver Center
Mon 06:49:11 PM 40.6967 -105.0733 81° East 521 600 37,000  Level Denver Center
Mon 06:50:13 PM 40.7183 -104.8858 81° East 515 593 37,000 97 Level Denver Center
Mon 06:51:15 PM 40.7406 -104.6975 81° East 514 592 37,200 780 Climbing Denver Center
Mon 06:52:16 PM 40.7617 -104.5119 81° East 508 585 38,600 878 Climbing Denver Center
Mon 06:53:18 PM 40.7842 -104.3261 81° East 506 582 39,000 194 Climbing Denver Center
Mon 06:54:20 PM 40.8319 -104.1469 71° East 511 588 39,000 49 Level Denver Center
Mon 06:55:21 PM 40.8797 -103.9675 71° East 511 588 39,100  Climbing Denver Center
Mon 06:56:23 PM 40.9269 -103.7875 71° East 512 589 39,000 -48 Descending Denver Center
Mon 06:57:25 PM 40.9739 -103.5742 74° East 519 597 39,000  Level Denver Center
Mon 06:58:27 PM 40.9897 -103.4128 83° East 499 574 39,000  Level Denver Center
Mon 06:59:28 PM 41.0103 -103.2097 82° East 500 575 39,000  Level Denver Center
Mon 07:00:30 PM 41.0258 -103.0378 83° East 496 571 39,000  Level Denver Center
Mon 07:01:32 PM 41.0439 -102.8514 83° East 505 581 39,000  Level Denver Center
Mon 07:02:33 PM 41.0622 -102.6450 83° East 505 581 39,000  Level Denver Center
Mon 07:03:35 PM 41.0775 -102.4669 83° East 507 583 39,000  Level Denver Center
Mon 07:04:37 PM 41.0964 -102.2581 83° East 514 592 39,000  Level Denver Center
Mon 07:05:38 PM 41.1122 -102.0764 83° East 519 597 39,000  Level Denver Center
Mon 07:06:40 PM 41.1292 -101.8639 84° East 519 597 39,000  Level Denver Center
Mon 07:07:42 PM 41.1442 -101.6814 84° East 520 598 39,000  Level Denver Center
Mon 07:08:44 PM 41.1592 -101.4978 84° East 523 602 39,000  Level Denver Center
Mon 07:09:45 PM 41.1753 -101.2831 84° East 523 602 39,000  Level Denver Center
Mon 07:10:47 PM 41.1897 -101.1022 84° East 514 592 39,000 -968 Level Denver Center
Mon 07:11:49 PM 41.2053 -100.8969 84° East 500 575 37,000 -968 Descending Denver Center
Mon 07:12:51 PM 41.2181 -100.7147 85° East 511 588 37,000  Level Denver Center
Mon 07:13:53 PM 41.2319 -100.5317 84° East 516 594 37,000  Level Denver Center
Mon 07:14:54 PM 41.2472 -100.3178 85° East 518 596 37,000  Level Denver Center
Mon 07:15:56 PM 41.2597 -100.1364 85° East 515 593 37,000  Level Denver Center
Mon 07:16:58 PM 41.2736 -99.9258 85° East 513 590 37,000  Level Denver Center
Mon 07:18:00 PM 41.2861 -99.7453 85° East 512 589 37,000  Level Denver Center
Mon 07:19:02 PM 41.3000 -99.5336 85° East 513 590 37,000  Level Denver Center
Mon 07:20:04 PM 41.3106 -99.3428 86° East 512 589 37,000  Level Denver Center
Mon 07:21:06 PM 41.3217 -99.1550 85° East 508 585 37,000  Level Denver Center
Mon 07:22:08 PM 41.3331 -98.9631 85° East 512 589 37,000  Level Denver Center
Mon 07:23:09 PM 41.3444 -98.7678 85° East 516 594 37,000  Level Denver Center
Mon 07:23:32 PM 41.3503 -98.6883 84° East 515 593 37,000  Level Minneapolis Center
Mon 07:24:34 PM 41.3594 -98.4975 86° East 518 596 37,000  Level Minneapolis Center
Mon 07:25:35 PM 41.3686 -98.3033 86° East 519 597 37,000  Level Minneapolis Center
Mon 07:26:37 PM 41.3789 -98.1142 86° East 514 592 37,000  Level Minneapolis Center
Mon 07:27:39 PM 41.3875 -97.9294 86° East 510 587 37,000  Level Minneapolis Center
Mon 07:28:40 PM 41.3956 -97.7414 87° East 510 587 37,000  Level Minneapolis Center
Mon 07:29:42 PM 41.4047 -97.5531 86° East 509 586 37,000  Level Minneapolis Center
Mon 07:30:44 PM 41.4136 -97.3650 86° East 509 586 37,000  Level Minneapolis Center
Mon 07:31:45 PM 41.4231 -97.1394 87° East 509 586 37,000  Level Minneapolis Center
Mon 07:32:47 PM 41.4306 -96.9503 87° East 510 587 37,000  Level Minneapolis Center
Mon 07:33:49 PM 41.4378 -96.7600 87° East 513 590 37,000  Level Minneapolis Center
Mon 07:34:50 PM 41.4453 -96.5686 87° East 515 593 37,000  Level Minneapolis Center
Mon 07:35:52 PM 41.4528 -96.3756 87° East 518 596 37,000  Level Minneapolis Center
Mon 07:36:53 PM 41.4581 -96.1769 88° East 524 603 37,000  Level Minneapolis Center
Mon 07:37:55 PM 41.4650 -95.9839 87° East 521 600 37,000  Level Minneapolis Center
Mon 07:38:57 PM 41.4706 -95.7919 88° East 519 597 37,000  Level Minneapolis Center
Mon 07:39:58 PM 41.4756 -95.5881 88° East 522 601 37,000  Level Minneapolis Center
Mon 07:41:00 PM 41.4803 -95.3956 88° East 520 598 37,000  Level Minneapolis Center
Mon 07:42:02 PM 41.4872 -95.2033 87° East 520 598 37,000  Level Minneapolis Center
Mon 07:43:03 PM 41.4917 -94.9736 88° East 518 596 37,000  Level Minneapolis Center
Mon 07:44:05 PM 41.4947 -94.7819 89° East 517 595 37,000  Level Minneapolis Center
Mon 07:45:06 PM 41.4989 -94.5908 88° East 514 592 37,000  Level Minneapolis Center
Mon 07:46:08 PM 41.5014 -94.3986 89° East 518 596 37,000  Level Minneapolis Center
Mon 07:47:09 PM 41.5039 -94.2161 89° East 525 604 37,000  Level Minneapolis Center
Mon 07:48:11 PM 41.5078 -94.0222 88° East 526 605 37,000  Level Minneapolis Center
Mon 07:49:13 PM 41.5100 -93.7892 89° East 527 606 37,000  Level Minneapolis Center
Mon 07:50:14 PM 41.5128 -93.5928 89° East 530 610 37,000  Level Minneapolis Center
Mon 07:51:16 PM 41.5167 -93.3953 88° East 534 615 37,000  Level Minneapolis Center
Mon 07:52:17 PM 41.5039 -93.2047 95° East 523 602 37,000  Level Minneapolis Center
Mon 07:53:19 PM 41.4886 -93.0119 96° East 522 601 37,000 -244 Level Minneapolis Center
Mon 07:54:20 PM 41.4728 -92.8225 96° East 521 600 36,500 -732 Descending Minneapolis Center
Mon 07:55:22 PM 41.4575 -92.6317 96° East 520 598 35,500 -732 Descending Minneapolis Center
Mon 07:56:23 PM 41.4383 -92.4017 96° East 521 600 35,000 -390 Descending Minneapolis Center
Mon 07:57:25 PM 41.4208 -92.2117 97° East 522 601 34,700 -595 Descending Minneapolis Center
Mon 07:58:24 PM 41.4042 -92.0250 97° East 518 596 33,800 -942 Descending Chicago Center
Mon 07:59:26 PM 41.3872 -91.8333 97° East 525 604 32,800 -927 Descending Chicago Center
Mon 08:00:27 PM 41.3697 -91.6433 97° East 525 604 31,900 -927 Descending Chicago Center
Mon 08:01:29 PM 41.3517 -91.4531 97° East 524 603 30,900 -919 Descending Chicago Center
Mon 08:02:31 PM 41.3336 -91.2567 97° East 530 610 30,000 -1,065 Descending Chicago Center
Mon 08:03:33 PM 41.3144 -91.0675 98° East 522 601 28,700 -2,565 Descending Chicago Center
Mon 08:04:35 PM 41.2914 -90.8369 98° East 522 601 24,700 -2,323 Descending Chicago Center
Mon 08:05:37 PM 41.2739 -90.6506 97° East 514 592 23,900 -1,694 Descending Chicago Center
Mon 08:06:39 PM 41.2547 -90.4689 98° East 501 577 21,200 -2,468 Descending Chicago Center
Mon 08:07:41 PM 41.2361 -90.2950 98° East 477 549 18,800 -2,516 Descending Chicago Center
Mon 08:08:43 PM 41.2192 -90.1311 98° East 450 518 16,000 -1,887 Descending Chicago Center
Mon 08:09:45 PM 41.2028 -89.9703 98° East 439 505 14,900 -532 Descending Chicago Center
Mon 08:10:47 PM 41.1850 -89.8125 98° East 431 496 14,900 -242 Level Chicago Center
Mon 08:11:49 PM 41.1672 -89.6511 98° East 438 504 14,400 -823 Descending Chicago Center
Mon 08:12:51 PM 41.1694 -89.4594 89° East 434 499 13,200 -1,065 Descending Chicago Center
Mon 08:13:53 PM 41.1800 -89.3003 85° East 432 497 12,200 -968 Descending Chicago Center
Mon 08:14:55 PM 41.1911 -89.1356 85° East 429 494 11,200 -968 Descending Chicago Center
Mon 08:15:57 PM 41.2003 -88.9839 85° East 420 483 10,200 -629 Descending Chicago Center
Mon 08:16:59 PM 41.2089 -88.8333 86° East 413 475 9,900 -145 Descending Chicago Center
Mon 08:18:01 PM 41.2619 -88.7147 59° Northeast 385 443 9,900 -435 Level Chicago Center
Mon 08:19:03 PM 41.3242 -88.6278 46° Northeast 328 377 9,000 -1,645 Descending Chicago Center
Mon 08:20:05 PM 41.3931 -88.5328 46° Northeast 303 349 6,500 -1,500 Descending Chicago Center
Mon 08:21:07 PM 41.4339 -88.4417 59° Northeast 292 336 5,900 -290 Descending Chicago Center
Mon 08:22:09 PM 41.4722 -88.3500 61° Northeast 286 329 5,900  Level Chicago Center
Mon 08:23:11 PM 41.5114 -88.2564 61° Northeast 287 330 5,900  Level Chicago Center
Mon 08:24:13 PM 41.5494 -88.1639 61° Northeast 286 329 5,900 -242 Level Chicago Center
Mon 08:25:15 PM 41.5861 -88.0781 60° Northeast 272 313 5,400 -774 Descending Chicago Center
Mon 08:26:17 PM 41.6261 -87.9819 61° Northeast 256 295 4,300 -816 Descending Chicago Center
Mon 08:27:20 PM 41.6606 -87.9061 59° Northeast 246 283 3,700 -816 Descending Chicago Center
Mon 08:28:22 PM 41.7028 -87.8547 42° Northeast 220 253 2,600 -919 Descending Chicago Center
Mon 08:29:24 PM 41.7353 -87.8175 41° Northeast 182 209 1,800 -726 Descending Chicago Center
Mon 08:30:26 PM 41.7594 -87.7847 45° Northeast 146 168 1,100 -484 Descending Chicago Center
Mon 08:31:28 PM 41.7892 -87.7458 44° Northeast 139 160 800 -290 Descending Chicago Center

Login

Don't have an account? Register now (free) for customized features, flight alerts, and more!